Time;durP1;ratioP1;P1;durP2;ratioP2;P2;SDS_P1;SDS_P2;PMS_P1;PMS_P2;Temp;Humidity;BMP_temperature;BMP_pressure;BME280_temperature;BME280_humidity;BME280_pressure;Samples;Min_cycle;Max_cycle;Signal;HPM_P1;HPM_P2
2023/11/25 00:00:50;;;;;;;0.70;0.70;;;4.80;92.00;;;;;;6151714;23;20032;-86
2023/11/25 00:03:16;;;;;;;1.23;0.80;;;4.80;92.00;;;;;;6150770;23;20085;-87
2023/11/25 00:05:42;;;;;;;0.98;0.70;;;4.80;92.00;;;;;;6151755;23;20048;-85
2023/11/25 00:08:08;;;;;;;1.58;0.80;;;4.80;92.00;;;;;;6149935;23;20551;-84
2023/11/25 00:10:34;;;;;;;2.05;0.88;;;4.80;92.00;;;;;;6150662;23;20218;-85
2023/11/25 00:13:00;;;;;;;1.55;0.80;;;4.80;92.00;;;;;;6149658;23;20431;-87
2023/11/25 00:15:26;;;;;;;2.58;0.80;;;4.80;92.00;;;;;;6149855;23;20005;-87
2023/11/25 00:17:52;;;;;;;1.58;0.80;;;4.80;92.00;;;;;;6151186;23;20357;-86
2023/11/25 00:20:19;;;;;;;0.65;0.65;;;4.70;92.00;;;;;;6152227;23;20041;-87
2023/11/25 00:22:45;;;;;;;1.10;1.00;;;4.80;92.00;;;;;;6151559;23;20182;-87
2023/11/25 00:25:12;;;;;;;0.80;0.80;;;4.80;92.10;;;;;;6150511;23;20013;-86
2023/11/25 00:27:37;;;;;;;2.35;0.82;;;4.80;92.10;;;;;;6148775;23;20002;-86
2023/11/25 00:30:07;;;;;;;1.67;0.80;;;4.80;92.10;;;;;;6152170;23;20043;-85
2023/11/25 00:32:39;;;;;;;2.03;0.90;;;4.80;92.10;;;;;;6148107;23;20032;-85
2023/11/25 00:35:06;;;;;;;4.68;1.00;;;4.80;92.10;;;;;;6152561;23;20001;-85
2023/11/25 00:37:32;;;;;;;1.85;1.13;;;4.70;92.10;;;;;;6151617;23;20048;-85
2023/11/25 00:39:59;;;;;;;2.60;0.93;;;4.80;92.10;;;;;;6151821;23;20029;-86
2023/11/25 00:42:25;;;;;;;1.63;0.75;;;4.80;92.10;;;;;;6151803;23;20008;-85
2023/11/25 00:44:50;;;;;;;1.10;0.85;;;4.80;92.10;;;;;;6151181;23;20009;-85
2023/11/25 00:47:16;;;;;;;1.85;0.98;;;4.80;92.20;;;;;;6152006;23;20368;-85
2023/11/25 00:49:43;;;;;;;1.25;0.90;;;4.80;92.10;;;;;;6152785;23;20064;-85
2023/11/25 00:52:09;;;;;;;2.25;1.10;;;4.80;92.10;;;;;;6151745;23;20421;-85
2023/11/25 00:54:36;;;;;;;2.88;0.98;;;4.80;92.20;;;;;;6151386;23;20052;-85
2023/11/25 00:57:01;;;;;;;2.15;0.98;;;4.80;92.20;;;;;;6152337;23;20009;-85
2023/11/25 00:59:27;;;;;;;3.10;1.00;;;4.80;92.50;;;;;;6152890;23;20103;-84
2023/11/25 01:01:53;;;;;;;1.38;0.80;;;4.80;92.20;;;;;;6152159;23;20324;-85
2023/11/25 01:04:18;;;;;;;2.17;1.02;;;4.80;92.20;;;;;;6151781;23;20531;-85
2023/11/25 01:06:48;;;;;;;1.35;0.85;;;4.80;92.20;;;;;;6152265;23;20009;-85
2023/11/25 01:09:16;;;;;;;2.53;0.90;;;4.90;92.30;;;;;;6152030;23;20431;-86
2023/11/25 01:11:42;;;;;;;1.27;0.70;;;4.90;92.20;;;;;;6152192;23;20017;-85
2023/11/25 01:14:08;;;;;;;2.05;0.75;;;4.90;92.20;;;;;;6151585;23;20375;-85
2023/11/25 01:16:34;;;;;;;1.52;0.82;;;5.00;92.20;;;;;;6151962;23;20006;-85
2023/11/25 01:18:59;;;;;;;2.80;1.10;;;5.00;92.20;;;;;;6152342;23;20004;-85
2023/11/25 01:21:26;;;;;;;1.75;0.88;;;5.00;92.20;;;;;;6152027;23;20006;-85
2023/11/25 01:23:52;;;;;;;2.38;0.80;;;5.00;92.20;;;;;;6148682;23;20084;-86
2023/11/25 01:26:17;;;;;;;1.77;0.93;;;5.10;92.20;;;;;;6152513;23;20041;-85
2023/11/25 01:28:43;;;;;;;3.00;0.80;;;5.00;92.20;;;;;;6125274;23;20075;-85
2023/11/25 01:31:10;;;;;;;1.27;0.70;;;5.10;92.20;;;;;;6152160;23;20091;-85
2023/11/25 01:33:36;;;;;;;1.70;0.80;;;5.10;92.20;;;;;;6152521;23;20052;-85
2023/11/25 01:36:02;;;;;;;5.05;1.00;;;5.10;92.30;;;;;;6151347;23;19998;-84
2023/11/25 01:38:28;;;;;;;2.28;0.90;;;5.10;92.30;;;;;;6151022;23;20009;-83
2023/11/25 01:40:55;;;;;;;1.35;1.00;;;5.10;92.30;;;;;;6151777;23;20384;-84
2023/11/25 01:43:24;;;;;;;2.03;0.77;;;5.10;92.30;;;;;;6151941;23;20002;-84
2023/11/25 01:45:52;;;;;;;1.75;0.82;;;5.10;92.20;;;;;;6125685;23;20014;-84
2023/11/25 01:48:19;;;;;;;2.58;1.00;;;5.10;92.30;;;;;;6151697;23;20021;-83
2023/11/25 01:50:45;;;;;;;1.90;0.90;;;5.00;92.30;;;;;;6125420;23;20076;-84
2023/11/25 01:53:14;;;;;;;4.95;1.00;;;5.00;92.30;;;;;;6124640;23;20001;-84
2023/11/25 01:55:41;;;;;;;2.53;1.00;;;5.00;92.40;;;;;;6125423;23;20001;-83
2023/11/25 01:58:07;;;;;;;3.13;0.90;;;5.00;92.40;;;;;;6151468;23;20005;-83
2023/11/25 02:00:34;;;;;;;3.95;1.00;;;5.00;92.40;;;;;;6151887;23;20084;-84
2023/11/25 02:03:00;;;;;;;1.67;0.85;;;5.00;92.40;;;;;;6124967;23;20006;-84
2023/11/25 02:05:27;;;;;;;3.60;0.90;;;5.00;92.40;;;;;;6151963;23;20346;-84
2023/11/25 02:07:53;;;;;;;1.63;0.75;;;5.00;92.40;;;;;;6150895;23;20057;-84
2023/11/25 02:10:19;;;;;;;1.45;0.90;;;5.00;92.40;;;;;;6151312;23;20046;-85
2023/11/25 02:12:46;;;;;;;1.00;0.73;;;5.10;92.40;;;;;;6124539;23;20321;-84
2023/11/25 02:15:14;;;;;;;1.45;0.80;;;5.00;92.40;;;;;;6124929;23;20014;-84
2023/11/25 02:17:44;;;;;;;3.15;1.02;;;5.00;92.50;;;;;;6125288;23;20005;-85
2023/11/25 02:20:12;;;;;;;4.40;1.10;;;5.00;92.50;;;;;;6152013;23;20002;-83
2023/11/25 02:22:37;;;;;;;1.55;0.90;;;5.00;92.50;;;;;;6150867;23;20447;-83
2023/11/25 02:25:04;;;;;;;2.35;0.90;;;5.10;92.60;;;;;;6152358;23;20017;-83
2023/11/25 02:27:30;;;;;;;3.03;0.85;;;5.00;92.60;;;;;;6149605;23;20001;-84
2023/11/25 02:29:55;;;;;;;1.65;0.80;;;5.00;92.60;;;;;;6151604;23;20013;-84
2023/11/25 02:32:21;;;;;;;2.75;0.80;;;5.10;92.60;;;;;;6150463;23;20009;-83
2023/11/25 02:34:47;;;;;;;2.60;0.80;;;5.10;92.60;;;;;;6125593;23;20001;-84
2023/11/25 02:37:15;;;;;;;2.17;0.80;;;5.10;92.60;;;;;;6151756;23;19997;-84
2023/11/25 02:39:41;;;;;;;1.90;0.90;;;5.20;92.60;;;;;;6152030;23;20089;-84
2023/11/25 02:42:09;;;;;;;1.33;0.80;;;5.20;92.60;;;;;;6151141;23;20631;-83
2023/11/25 02:44:35;;;;;;;1.13;0.88;;;5.20;92.60;;;;;;6124863;23;20013;-84
2023/11/25 02:47:02;;;;;;;1.63;0.85;;;5.20;92.60;;;;;;6124785;23;20009;-84
2023/11/25 02:49:27;;;;;;;2.92;0.80;;;5.20;92.60;;;;;;6151887;23;20006;-84
2023/11/25 02:51:54;;;;;;;1.38;0.73;;;5.20;92.60;;;;;;6151542;23;20476;-83
2023/11/25 02:54:21;;;;;;;2.45;0.80;;;5.20;92.60;;;;;;6150889;23;20071;-83
2023/11/25 02:56:47;;;;;;;2.03;0.82;;;5.30;92.60;;;;;;6124859;23;20001;-83
2023/11/25 02:59:13;;;;;;;2.72;0.80;;;5.30;92.60;;;;;;6150319;23;20012;-83
2023/11/25 03:01:47;;;;;;;2.08;0.77;;;5.30;92.60;;;;;;6151117;23;20455;-84
2023/11/25 03:04:20;;;;;;;1.42;0.82;;;5.30;92.70;;;;;;6124497;23;20069;-83
2023/11/25 03:06:46;;;;;;;1.30;0.70;;;5.30;92.70;;;;;;6151016;23;20036;-84
2023/11/25 03:09:13;;;;;;;0.90;0.70;;;5.30;92.60;;;;;;6143073;23;20040;-83
2023/11/25 03:11:39;;;;;;;1.50;0.70;;;5.30;92.70;;;;;;6151349;23;20036;-83
2023/11/25 03:14:05;;;;;;;2.47;0.77;;;5.30;92.70;;;;;;6151018;23;20128;-84
2023/11/25 03:16:32;;;;;;;0.98;0.70;;;5.20;92.70;;;;;;6150327;23;20036;-83
2023/11/25 03:18:59;;;;;;;2.22;0.70;;;5.20;92.70;;;;;;6149641;23;20036;-83
2023/11/25 03:21:24;;;;;;;1.38;1.00;;;5.20;92.80;;;;;;6151675;23;20076;-83
2023/11/25 03:23:50;;;;;;;3.50;0.90;;;5.20;92.80;;;;;;6148837;23;20494;-83
2023/11/25 03:26:16;;;;;;;1.00;0.70;;;5.10;92.90;;;;;;6150880;23;20006;-84
2023/11/25 03:28:42;;;;;;;0.80;0.70;;;5.10;92.90;;;;;;6150248;23;20001;-83
2023/11/25 03:31:08;;;;;;;2.28;0.80;;;5.10;92.90;;;;;;6151298;23;20521;-83
2023/11/25 03:33:34;;;;;;;1.70;0.70;;;5.10;92.90;;;;;;6149554;23;20033;-83
2023/11/25 03:36:00;;;;;;;1.90;0.70;;;5.10;93.00;;;;;;6150281;23;20029;-84
2023/11/25 03:38:26;;;;;;;1.90;0.80;;;5.10;93.00;;;;;;6150977;23;20001;-84
2023/11/25 03:40:52;;;;;;;1.70;0.93;;;5.10;93.00;;;;;;6151041;23;20016;-83
2023/11/25 03:43:21;;;;;;;2.00;0.70;;;5.10;93.00;;;;;;6148788;23;20437;-83
2023/11/25 03:45:47;;;;;;;2.80;0.80;;;5.10;93.00;;;;;;6149640;23;20044;-82
2023/11/25 03:48:13;;;;;;;2.75;0.80;;;5.10;93.00;;;;;;6151466;23;20382;-82
2023/11/25 03:50:39;;;;;;;3.33;0.90;;;5.10;93.00;;;;;;6150815;23;20010;-82
2023/11/25 03:53:05;;;;;;;2.50;0.90;;;5.10;93.00;;;;;;6149553;23;20397;-82
2023/11/25 03:55:30;;;;;;;0.98;0.93;;;5.10;93.00;;;;;;6150535;23;20437;-82
2023/11/25 03:57:56;;;;;;;0.93;0.70;;;5.10;93.00;;;;;;6150714;23;20132;-83
2023/11/25 04:00:22;;;;;;;1.05;0.70;;;5.00;93.00;;;;;;6151645;23;20041;-84
2023/11/25 04:02:48;;;;;;;1.08;0.80;;;5.10;93.00;;;;;;6150217;23;20008;-84
2023/11/25 04:05:18;;;;;;;1.83;0.88;;;5.10;93.00;;;;;;6151714;23;20104;-83
2023/11/25 04:07:43;;;;;;;1.92;0.90;;;5.10;93.00;;;;;;6150206;23;20006;-83
2023/11/25 04:10:14;;;;;;;2.13;0.98;;;5.10;92.90;;;;;;6151120;23;20056;-84
2023/11/25 04:12:43;;;;;;;1.63;0.80;;;5.10;93.00;;;;;;6124703;23;20425;-84
2023/11/25 04:15:10;;;;;;;3.13;1.30;;;5.10;93.00;;;;;;6150551;23;20029;-82
2023/11/25 04:17:37;;;;;;;1.90;1.00;;;5.00;92.90;;;;;;6126464;23;20009;-85
2023/11/25 04:20:12;;;;;;;2.47;0.98;;;5.10;92.90;;;;;;6126709;23;20006;-85
2023/11/25 04:30:17;;;;;;;2.80;1.27;;;5.20;92.80;;;;;;6207269;23;20090;-84
2023/11/25 04:32:44;;;;;;;4.30;1.00;;;5.20;92.80;;;;;;6210743;23;20004;-84
2023/11/25 04:35:10;;;;;;;2.35;0.90;;;5.30;92.80;;;;;;6211825;23;20079;-84
2023/11/25 04:37:37;;;;;;;1.45;0.80;;;5.30;92.70;;;;;;6212901;23;20078;-84
2023/11/25 04:40:05;;;;;;;0.98;0.60;;;5.40;92.70;;;;;;6183456;23;20009;-84
2023/11/25 04:42:31;;;;;;;3.45;1.23;;;5.40;92.60;;;;;;6153834;23;20137;-84
2023/11/25 04:44:56;;;;;;;0.80;0.80;;;5.40;92.60;;;;;;6182140;23;20068;-84
2023/11/25 04:47:22;;;;;;;3.03;0.90;;;5.40;92.50;;;;;;6182823;23;20005;-84
2023/11/25 04:49:47;;;;;;;1.90;0.80;;;5.40;92.50;;;;;;6180313;23;20444;-84
2023/11/25 04:52:13;;;;;;;1.10;0.80;;;5.40;92.40;;;;;;6182197;23;20435;-85
2023/11/25 04:54:41;;;;;;;1.35;0.88;;;5.40;92.50;;;;;;6155985;23;20776;-84
2023/11/25 04:57:07;;;;;;;1.67;0.80;;;5.40;92.50;;;;;;6155655;23;20005;-84
2023/11/25 04:59:34;;;;;;;2.20;0.70;;;5.40;92.60;;;;;;6181115;23;20305;-85
2023/11/25 05:01:59;;;;;;;2.88;1.00;;;5.40;92.60;;;;;;6182298;23;20012;-85
2023/11/25 05:04:25;;;;;;;2.00;0.73;;;5.40;92.60;;;;;;6182080;23;20013;-85
2023/11/25 05:06:51;;;;;;;1.98;0.85;;;5.40;92.60;;;;;;6180977;23;20001;-84
2023/11/25 05:09:18;;;;;;;1.13;0.80;;;5.50;92.70;;;;;;6181615;23;20001;-83
2023/11/25 05:11:44;;;;;;;0.70;0.70;;;5.50;92.60;;;;;;6155658;23;20621;-84
2023/11/25 05:21:49;;;;;;;2.47;0.77;;;5.40;92.80;;;;;;6208962;23;20427;-84
2023/11/25 05:24:15;;;;;;;0.80;0.70;;;5.40;92.80;;;;;;6211434;23;20005;-84
2023/11/25 05:26:40;;;;;;;0.95;0.70;;;5.40;92.90;;;;;;6183940;23;20015;-84
2023/11/25 05:29:06;;;;;;;2.17;0.73;;;5.40;92.90;;;;;;6211382;23;20024;-84
2023/11/25 05:31:36;;;;;;;1.13;0.60;;;5.40;93.00;;;;;;6184472;23;20347;-84
2023/11/25 05:34:04;;;;;;;0.98;0.75;;;5.40;93.10;;;;;;6182221;23;20431;-84
2023/11/25 05:36:33;;;;;;;0.68;0.68;;;5.30;93.10;;;;;;6155159;23;20012;-84
2023/11/25 05:39:05;;;;;;;1.23;0.70;;;5.30;93.10;;;;;;6180011;23;20072;-84
2023/11/25 05:41:31;;;;;;;1.25;0.70;;;5.20;93.10;;;;;;6181730;23;20056;-84
2023/11/25 05:43:57;;;;;;;1.30;0.90;;;5.20;93.20;;;;;;6180254;23;20324;-84
2023/11/25 05:46:24;;;;;;;2.00;0.60;;;5.20;93.20;;;;;;6155263;23;20009;-84
2023/11/25 05:48:52;;;;;;;1.55;0.70;;;5.20;93.30;;;;;;6181011;23;20305;-84
2023/11/25 05:51:18;;;;;;;2.15;0.80;;;5.20;93.40;;;;;;6180163;23;20428;-84
2023/11/25 05:53:44;;;;;;;0.90;0.70;;;5.20;93.40;;;;;;6156524;23;20507;-84
2023/11/25 05:56:10;;;;;;;1.17;0.77;;;5.20;93.40;;;;;;6153959;23;20009;-85
2023/11/25 05:58:36;;;;;;;0.70;0.70;;;5.20;93.40;;;;;;6155245;23;20005;-85
2023/11/25 06:01:02;;;;;;;1.80;0.85;;;5.20;93.40;;;;;;6181044;23;20001;-84
2023/11/25 06:03:28;;;;;;;1.23;0.70;;;5.20;93.40;;;;;;6154018;23;20332;-83
2023/11/25 06:05:54;;;;;;;0.70;0.70;;;5.10;93.40;;;;;;6181266;23;20013;-85
2023/11/25 06:08:23;;;;;;;0.90;0.73;;;5.10;93.40;;;;;;6181844;23;20075;-84
2023/11/25 06:10:49;;;;;;;0.80;0.80;;;5.10;93.40;;;;;;6153770;23;20005;-85
2023/11/25 06:13:15;;;;;;;1.58;1.13;;;5.10;93.50;;;;;;6180790;23;20040;-85
2023/11/25 06:15:40;;;;;;;0.82;0.60;;;5.10;93.50;;;;;;6181406;23;20036;-85
2023/11/25 06:18:07;;;;;;;1.92;0.77;;;5.10;93.50;;;;;;6181862;23;20642;-85
2023/11/25 06:20:34;;;;;;;0.88;0.70;;;5.10;93.50;;;;;;6180725;23;20005;-84
2023/11/25 06:23:00;;;;;;;1.20;0.75;;;5.10;93.50;;;;;;6181010;23;20005;-85
2023/11/25 06:25:26;;;;;;;1.60;0.70;;;5.10;93.50;;;;;;6182397;23;20088;-85
2023/11/25 06:27:52;;;;;;;0.82;0.68;;;5.10;93.50;;;;;;6153051;23;20450;-85
2023/11/25 06:30:17;;;;;;;1.70;0.80;;;5.10;93.50;;;;;;6179926;23;20011;-85
2023/11/25 06:32:43;;;;;;;1.85;0.75;;;5.10;93.50;;;;;;6181590;23;20001;-85
2023/11/25 06:35:09;;;;;;;0.80;0.80;;;5.10;93.60;;;;;;6154785;23;20643;-84
2023/11/25 06:37:39;;;;;;;3.92;0.95;;;5.10;93.60;;;;;;6181414;23;20007;-84
2023/11/25 06:40:06;;;;;;;1.70;0.90;;;5.10;93.60;;;;;;6180109;23;20004;-84
2023/11/25 06:42:32;;;;;;;1.02;0.70;;;5.10;93.60;;;;;;6180769;23;20326;-83
2023/11/25 06:44:58;;;;;;;0.77;0.70;;;5.10;93.60;;;;;;6178676;23;20013;-84
2023/11/25 06:47:24;;;;;;;0.65;0.60;;;5.10;93.60;;;;;;6180344;23;20009;-84
2023/11/25 06:49:51;;;;;;;1.30;0.70;;;5.10;93.60;;;;;;6153635;23;20005;-84
2023/11/25 06:52:17;;;;;;;0.70;0.70;;;5.20;93.60;;;;;;6179857;23;20001;-84
2023/11/25 06:54:42;;;;;;;0.85;0.70;;;5.20;93.60;;;;;;6154194;23;20043;-84
2023/11/25 06:57:08;;;;;;;1.30;0.73;;;5.20;93.50;;;;;;6153752;23;20001;-84
2023/11/25 06:59:33;;;;;;;2.30;0.80;;;5.20;93.50;;;;;;6179885;23;20016;-84
2023/11/25 07:01:59;;;;;;;1.63;0.73;;;5.20;93.50;;;;;;6153356;23;20059;-83
2023/11/25 07:04:26;;;;;;;2.28;0.75;;;5.30;93.50;;;;;;6153905;23;20443;-85
2023/11/25 07:06:51;;;;;;;1.25;0.80;;;5.30;93.50;;;;;;6154117;23;20012;-85
2023/11/25 07:09:18;;;;;;;1.40;0.80;;;5.30;93.50;;;;;;6179793;23;20005;-84
2023/11/25 07:11:45;;;;;;;1.33;0.77;;;5.30;93.40;;;;;;6153720;23;20088;-85
2023/11/25 07:14:10;;;;;;;1.63;0.70;;;5.40;93.40;;;;;;6179475;23;20109;-83
2023/11/25 07:16:36;;;;;;;0.80;0.80;;;5.40;93.40;;;;;;6179293;23;20005;-84
2023/11/25 07:19:04;;;;;;;2.45;0.90;;;5.40;93.40;;;;;;6179808;23;19997;-84
2023/11/25 07:21:31;;;;;;;2.35;0.95;;;5.40;93.40;;;;;;6180859;23;20088;-84
2023/11/25 07:23:56;;;;;;;1.73;0.95;;;5.40;93.40;;;;;;6153921;23;20002;-85
2023/11/25 07:26:22;;;;;;;1.33;1.00;;;5.40;93.40;;;;;;6180837;23;20009;-85
2023/11/25 07:28:48;;;;;;;1.38;0.90;;;5.40;93.40;;;;;;6180748;23;20004;-84
2023/11/25 07:31:14;;;;;;;1.42;0.82;;;5.40;93.50;;;;;;6179815;23;20059;-84
2023/11/25 07:33:39;;;;;;;1.38;0.80;;;5.40;93.50;;;;;;6179789;23;20001;-84
2023/11/25 07:36:06;;;;;;;1.55;0.77;;;5.40;93.40;;;;;;6153860;23;20010;-84
2023/11/25 07:38:32;;;;;;;1.23;0.70;;;5.40;93.40;;;;;;6152351;23;20005;-84
2023/11/25 07:40:58;;;;;;;0.70;0.70;;;5.40;93.50;;;;;;6179416;23;19997;-83
2023/11/25 07:43:24;;;;;;;0.63;0.63;;;5.40;93.50;;;;;;6153957;23;20009;-84
2023/11/25 07:45:50;;;;;;;1.08;0.70;;;5.50;93.60;;;;;;6181220;23;20021;-83
2023/11/25 07:48:15;;;;;;;0.60;0.60;;;5.50;93.60;;;;;;6181371;23;20416;-84
2023/11/25 07:50:45;;;;;;;0.60;0.60;;;5.50;93.60;;;;;;6181490;23;20005;-85
2023/11/25 07:53:14;;;;;;;0.70;0.65;;;5.50;93.50;;;;;;6155576;23;20001;-85
2023/11/25 07:55:39;;;;;;;0.60;0.60;;;5.50;93.50;;;;;;6182613;23;20001;-85
2023/11/25 07:58:05;;;;;;;1.02;0.70;;;5.50;93.60;;;;;;6153906;23;20054;-85
2023/11/25 08:00:31;;;;;;;2.60;0.70;;;5.50;93.60;;;;;;6180788;23;20009;-86
2023/11/25 08:02:58;;;;;;;0.80;0.80;;;5.60;93.60;;;;;;6181650;23;20005;-85
2023/11/25 08:05:24;;;;;;;0.68;0.68;;;5.60;93.60;;;;;;6182983;23;20463;-85
2023/11/25 08:07:51;;;;;;;0.68;0.68;;;5.60;93.50;;;;;;6155892;23;19997;-85
2023/11/25 08:10:17;;;;;;;2.75;0.80;;;5.70;93.50;;;;;;6182354;23;20124;-85
2023/11/25 08:12:45;;;;;;;0.77;0.70;;;5.80;93.50;;;;;;6181958;23;20036;-85
2023/11/25 08:15:10;;;;;;;1.67;0.80;;;5.80;93.40;;;;;;6156527;23;20374;-85
2023/11/25 08:17:36;;;;;;;2.63;0.90;;;5.80;93.40;;;;;;6155723;23;20001;-85
2023/11/25 08:20:02;;;;;;;0.70;0.70;;;5.90;93.40;;;;;;6182779;23;20012;-84
2023/11/25 08:22:28;;;;;;;1.58;0.80;;;5.90;93.40;;;;;;6155862;23;20081;-85
2023/11/25 08:24:56;;;;;;;1.48;1.08;;;5.90;93.50;;;;;;6182617;23;20071;-85
2023/11/25 08:27:22;;;;;;;2.22;1.48;;;5.90;93.40;;;;;;6182059;23;20024;-84
2023/11/25 08:29:47;;;;;;;2.15;0.90;;;5.90;93.30;;;;;;6182292;23;20009;-85
2023/11/25 08:32:13;;;;;;;2.63;0.98;;;5.90;93.40;;;;;;6182177;23;20146;-83
2023/11/25 08:34:38;;;;;;;1.45;0.70;;;5.90;93.40;;;;;;6182821;23;20005;-85
2023/11/25 08:37:05;;;;;;;1.40;0.80;;;5.90;93.40;;;;;;6157587;23;20396;-84
2023/11/25 08:39:32;;;;;;;1.83;1.00;;;6.00;93.40;;;;;;6155890;23;20298;-84
2023/11/25 08:41:59;;;;;;;0.70;0.70;;;6.00;93.40;;;;;;6182474;23;20011;-85
2023/11/25 08:44:26;;;;;;;2.03;0.80;;;6.10;93.50;;;;;;6182260;23;20336;-85
2023/11/25 08:46:53;;;;;;;1.02;0.90;;;6.10;93.50;;;;;;6155872;23;20092;-86
2023/11/25 08:49:21;;;;;;;1.20;0.70;;;6.10;93.40;;;;;;6155941;23;20445;-85
2023/11/25 08:51:49;;;;;;;1.38;0.70;;;6.10;93.40;;;;;;6182399;23;20419;-85
2023/11/25 08:54:17;;;;;;;2.17;0.70;;;6.20;93.40;;;;;;6156305;23;19997;-85
2023/11/25 08:56:47;;;;;;;2.00;0.70;;;6.20;93.30;;;;;;6155600;23;20005;-85
2023/11/25 08:59:17;;;;;;;0.95;0.70;;;6.30;93.30;;;;;;6182224;23;20079;-86
2023/11/25 09:01:43;;;;;;;1.27;0.63;;;6.30;93.20;;;;;;6182808;23;20016;-86
2023/11/25 09:04:13;;;;;;;0.85;0.60;;;6.30;93.30;;;;;;6181676;23;20032;-86
2023/11/25 09:06:39;;;;;;;0.70;0.60;;;6.30;93.30;;;;;;6182412;23;20005;-85
2023/11/25 09:09:08;;;;;;;1.55;0.70;;;6.30;93.30;;;;;;6154891;23;20436;-86
2023/11/25 09:11:35;;;;;;;1.60;0.70;;;6.40;93.40;;;;;;6182020;23;20009;-86
2023/11/25 09:14:02;;;;;;;0.70;0.70;;;6.40;93.30;;;;;;6181902;23;20079;-85
2023/11/25 09:16:28;;;;;;;1.05;0.57;;;6.50;93.40;;;;;;6182538;23;20324;-85
2023/11/25 09:18:56;;;;;;;0.60;0.60;;;6.50;93.40;;;;;;6154706;23;20001;-86
2023/11/25 09:21:22;;;;;;;0.60;0.60;;;6.70;93.40;;;;;;6180940;23;20008;-85
2023/11/25 09:23:47;;;;;;;1.48;0.75;;;6.80;93.30;;;;;;6154527;23;19997;-85
2023/11/25 09:26:13;;;;;;;0.80;0.68;;;6.90;93.20;;;;;;6182075;23;20439;-85
2023/11/25 09:28:40;;;;;;;1.35;0.63;;;7.00;93.10;;;;;;6181328;23;20368;-85
2023/11/25 09:31:06;;;;;;;2.92;0.70;;;7.00;92.90;;;;;;6180676;23;20323;-85
2023/11/25 09:33:32;;;;;;;1.38;0.75;;;7.00;92.90;;;;;;6155069;23;20088;-85
2023/11/25 09:35:57;;;;;;;3.53;0.93;;;7.10;92.90;;;;;;6154276;23;20083;-84
2023/11/25 09:38:23;;;;;;;1.90;0.90;;;7.10;92.90;;;;;;6155577;23;20008;-86
2023/11/25 09:40:49;;;;;;;0.82;0.60;;;7.10;92.90;;;;;;6180269;23;20012;-86
2023/11/25 09:43:17;;;;;;;1.55;0.70;;;7.10;92.90;;;;;;6154048;23;20399;-86
2023/11/25 09:45:44;;;;;;;0.68;0.68;;;7.10;93.00;;;;;;6179886;23;20020;-86
2023/11/25 09:48:10;;;;;;;1.25;0.70;;;7.20;93.00;;;;;;6180630;23;20004;-86
2023/11/25 09:50:36;;;;;;;1.90;0.75;;;7.20;93.00;;;;;;6181839;23;20005;-86
2023/11/25 09:53:18;;;;;;;1.63;0.85;;;7.20;93.00;;;;;;6175989;23;20313;-85
2023/11/25 09:56:06;;;;;;;1.00;0.70;;;7.20;93.00;;;;;;6182511;23;20013;-86
2023/11/25 09:58:37;;;;;;;2.60;1.30;;;7.30;92.90;;;;;;6180803;23;20028;-85
2023/11/25 10:01:11;;;;;;;2.72;1.25;;;7.30;92.90;;;;;;6152449;23;20020;-86
2023/11/25 10:03:42;;;;;;;1.60;0.90;;;7.30;92.80;;;;;;6154656;23;20446;-86
2023/11/25 10:06:08;;;;;;;1.80;0.90;;;7.40;92.80;;;;;;6154788;23;20318;-86
2023/11/25 10:08:34;;;;;;;1.83;0.77;;;7.40;92.80;;;;;;6157560;23;20001;-86
2023/11/25 10:11:14;;;;;;;2.17;0.93;;;7.40;92.80;;;;;;6179762;23;20079;-86
2023/11/25 10:13:42;;;;;;;1.40;0.73;;;7.50;92.80;;;;;;6178989;23;20005;-85
2023/11/25 10:16:09;;;;;;;0.70;0.70;;;7.60;92.70;;;;;;6153858;23;20005;-86
2023/11/25 10:18:38;;;;;;;2.05;0.82;;;7.60;92.60;;;;;;6153905;23;20065;-86
2023/11/25 10:21:10;;;;;;;1.90;0.90;;;7.60;92.60;;;;;;6150867;23;20045;-85
2023/11/25 10:23:36;;;;;;;1.65;0.93;;;7.60;92.50;;;;;;6149469;23;20014;-86
2023/11/25 10:26:03;;;;;;;1.63;0.90;;;7.60;92.50;;;;;;6150062;23;20366;-85
2023/11/25 10:28:32;;;;;;;1.75;0.90;;;7.60;92.50;;;;;;6149353;23;20005;-86
2023/11/25 10:31:09;;;;;;;2.03;0.88;;;7.70;92.60;;;;;;6140568;23;20005;-86
2023/11/25 10:33:37;;;;;;;2.17;1.00;;;7.70;92.70;;;;;;6144540;23;20092;-85
2023/11/25 10:36:03;;;;;;;3.25;0.90;;;7.70;92.70;;;;;;6148345;23;20012;-86
2023/11/25 10:38:29;;;;;;;1.25;0.80;;;7.80;92.60;;;;;;6147997;23;20527;-86
2023/11/25 10:41:03;;;;;;;3.92;0.90;;;7.80;92.60;;;;;;6148032;23;20008;-86
2023/11/25 10:43:30;;;;;;;1.70;0.80;;;7.90;92.60;;;;;;6146419;23;20010;-85
2023/11/25 10:46:03;;;;;;;2.58;0.90;;;7.90;92.60;;;;;;6146537;23;20404;-87
2023/11/25 10:48:29;;;;;;;3.95;0.85;;;8.10;92.60;;;;;;6148223;23;20270;-86
2023/11/25 10:50:57;;;;;;;2.28;1.02;;;8.20;92.50;;;;;;6146306;23;20001;-86
2023/11/25 10:53:29;;;;;;;3.25;0.98;;;8.30;92.40;;;;;;6147323;23;20001;-86
2023/11/25 10:55:56;;;;;;;6.63;1.92;;;8.40;92.30;;;;;;6148744;23;20005;-86
2023/11/25 10:58:22;;;;;;;3.33;1.23;;;8.50;92.20;;;;;;6151232;23;20031;-87
2023/11/25 11:00:48;;;;;;;3.72;1.05;;;8.60;92.20;;;;;;6149856;23;20141;-87
2023/11/25 11:03:15;;;;;;;4.07;1.33;;;8.60;92.10;;;;;;6151634;23;20083;-86
2023/11/25 11:05:55;;;;;;;3.58;1.40;;;8.50;92.10;;;;;;6149589;23;20017;-87
2023/11/25 11:08:31;;;;;;;2.72;1.13;;;8.40;92.20;;;;;;6149702;23;20012;-87
2023/11/25 11:11:03;;;;;;;1.75;0.98;;;8.30;92.20;;;;;;6146878;23;20009;-86
2023/11/25 11:13:34;;;;;;;3.10;0.90;;;8.20;92.30;;;;;;6147507;23;20025;-86
2023/11/25 11:16:06;;;;;;;2.30;1.08;;;8.10;92.40;;;;;;6149723;23;20017;-85
2023/11/25 11:18:35;;;;;;;2.70;0.73;;;8.10;92.50;;;;;;6149652;23;20429;-86
2023/11/25 11:21:05;;;;;;;1.40;1.00;;;8.10;92.60;;;;;;6169006;23;20028;-86
2023/11/25 11:23:36;;;;;;;1.55;0.90;;;8.10;92.60;;;;;;6151263;23;20017;-86
2023/11/25 11:26:16;;;;;;;2.47;0.70;;;8.20;92.60;;;;;;6180547;23;20012;-86
2023/11/25 11:28:48;;;;;;;3.72;0.90;;;8.20;92.60;;;;;;6181256;23;20001;-87
2023/11/25 11:31:49;;;;;;;3.28;1.00;;;8.30;92.60;;;;;;6180494;23;20016;-86
2023/11/25 11:34:17;;;;;;;2.77;0.90;;;8.40;92.60;;;;;;6154329;23;20364;-86
2023/11/25 11:36:42;;;;;;;3.95;0.85;;;8.40;92.50;;;;;;6178078;23;20019;-86
2023/11/25 11:39:11;;;;;;;2.22;0.80;;;8.50;92.50;;;;;;6153373;23;20075;-86
2023/11/25 11:41:39;;;;;;;2.97;1.00;;;8.60;92.40;;;;;;6154633;23;20009;-87
2023/11/25 11:44:05;;;;;;;3.72;1.00;;;8.70;92.30;;;;;;6154362;23;20013;-86
2023/11/25 11:46:42;;;;;;;5.13;1.00;;;8.70;92.20;;;;;;6181212;23;20009;-87
2023/11/25 11:49:08;;;;;;;2.35;0.70;;;8.70;92.10;;;;;;6180438;23;20005;-87
2023/11/25 11:51:37;;;;;;;2.83;0.98;;;8.80;92.20;;;;;;6181090;23;20080;-86
2023/11/25 11:54:29;;;;;;;1.60;0.75;;;8.80;92.20;;;;;;6180595;23;20008;-86
2023/11/25 11:57:02;;;;;;;;;;;9.00;92.20;;;;;;6174697;23;20017;-86
2023/11/25 12:00:13;;;;;;;6.72;1.40;;;9.20;92.20;;;;;;6180137;23;19904;-86
2023/11/25 12:02:42;;;;;;;3.45;0.82;;;9.50;91.80;;;;;;6153992;23;20511;-86
2023/11/25 12:05:14;;;;;;;3.33;0.80;;;9.40;91.30;;;;;;6180518;23;20387;-86
2023/11/25 12:07:39;;;;;;;2.72;1.00;;;9.50;91.40;;;;;;6181736;23;20005;-86
2023/11/25 12:10:06;;;;;;;2.13;1.00;;;9.60;91.30;;;;;;6179233;23;20076;-86
2023/11/25 12:12:38;;;;;;;3.35;0.88;;;9.60;91.30;;;;;;6180224;23;20005;-86
2023/11/25 12:15:06;;;;;;;2.25;0.75;;;9.70;91.30;;;;;;6178765;23;20016;-86
2023/11/25 12:17:31;;;;;;;2.78;1.00;;;9.60;91.20;;;;;;6180821;23;20008;-86
2023/11/25 12:19:57;;;;;;;1.63;0.77;;;9.60;91.20;;;;;;6181432;23;20450;-86
2023/11/25 12:22:23;;;;;;;3.30;0.85;;;9.60;91.20;;;;;;6154743;23;20016;-86
2023/11/25 12:24:48;;;;;;;3.65;1.10;;;9.80;91.10;;;;;;6182444;23;20360;-86
2023/11/25 12:27:17;;;;;;;2.60;0.80;;;9.90;90.90;;;;;;6180804;23;20009;-86
2023/11/25 12:29:43;;;;;;;1.52;0.80;;;9.80;90.60;;;;;;6180490;23;20428;-86
2023/11/25 12:32:08;;;;;;;3.83;1.02;;;9.50;90.50;;;;;;6182214;23;20007;-86
2023/11/25 12:34:34;;;;;;;0.90;0.60;;;9.30;90.80;;;;;;6181615;23;20005;-86
2023/11/25 12:37:00;;;;;;;2.03;1.00;;;9.20;91.00;;;;;;6182074;23;20008;-86
2023/11/25 12:39:26;;;;;;;1.23;0.70;;;9.10;91.30;;;;;;6155117;23;20392;-86
2023/11/25 12:41:53;;;;;;;1.95;0.88;;;9.10;91.40;;;;;;6184473;23;20079;-86
2023/11/25 12:44:20;;;;;;;2.05;0.73;;;9.20;91.60;;;;;;6155258;23;20055;-86
2023/11/25 12:47:06;;;;;;;5.20;0.82;;;9.60;91.10;;;;;;6181334;23;20012;-86
2023/11/25 12:49:32;;;;;;;1.90;1.00;;;9.60;91.00;;;;;;6182291;23;19997;-85
2023/11/25 12:51:58;;;;;;;3.90;1.05;;;9.60;90.90;;;;;;6182274;23;20012;-86
2023/11/25 12:54:23;;;;;;;3.40;0.93;;;9.60;90.80;;;;;;6182083;23;20017;-86
2023/11/25 12:56:50;;;;;;;3.05;1.08;;;9.40;90.80;;;;;;6179845;23;20009;-86
2023/11/25 12:59:28;;;;;;;3.35;0.90;;;9.30;91.20;;;;;;6181130;23;20326;-86
2023/11/25 13:02:07;;;;;;;4.50;0.88;;;9.20;91.00;;;;;;6155018;23;20557;-85
2023/11/25 13:04:46;;;;;;;6.72;1.40;;;9.10;91.10;;;;;;6148519;23;20016;-85
2023/11/25 13:07:27;;;;;;;3.78;1.35;;;8.90;91.00;;;;;;6153245;23;20013;-85
2023/11/25 13:09:52;;;;;;;3.30;1.02;;;8.80;91.20;;;;;;6181201;23;20305;-85
2023/11/25 13:12:18;;;;;;;2.45;1.00;;;8.60;91.40;;;;;;6181080;23;20051;-85
2023/11/25 13:14:43;;;;;;;2.10;0.80;;;8.50;91.60;;;;;;6183444;23;20426;-85